sensor_id;sensor_type;location;lat;lon;timestamp;pressure;altitude;pressure_sealevel;temperature;humidity
33554;BME280;19885;42.208;24.952;2024-01-16T00:01:47;98588.00;;;2.19;100.00
33554;BME280;19885;42.208;24.952;2024-01-16T00:04:12;98582.13;;;2.25;100.00
33554;BME280;19885;42.208;24.952;2024-01-16T00:06:41;98583.84;;;2.24;100.00
33554;BME280;19885;42.208;24.952;2024-01-16T00:09:07;98591.53;;;2.24;100.00
33554;BME280;19885;42.208;24.952;2024-01-16T00:11:32;98601.88;;;2.27;100.00
33554;BME280;19885;42.208;24.952;2024-01-16T00:13:58;98595.56;;;2.11;100.00
33554;BME280;19885;42.208;24.952;2024-01-16T00:16:23;98598.75;;;2.00;100.00
33554;BME280;19885;42.208;24.952;2024-01-16T00:18:48;98591.81;;;1.93;100.00
33554;BME280;19885;42.208;24.952;2024-01-16T00:21:17;98594.84;;;1.75;100.00
33554;BME280;19885;42.208;24.952;2024-01-16T00:23:42;98595.34;;;1.99;100.00
33554;BME280;19885;42.208;24.952;2024-01-16T00:26:07;98592.16;;;2.11;100.00
33554;BME280;19885;42.208;24.952;2024-01-16T00:28:33;98600.16;;;1.83;100.00
33554;BME280;19885;42.208;24.952;2024-01-16T00:30:58;98593.16;;;1.76;100.00
33554;BME280;19885;42.208;24.952;2024-01-16T00:33:24;98588.22;;;1.44;100.00
33554;BME280;19885;42.208;24.952;2024-01-16T00:35:49;98592.16;;;1.30;100.00
33554;BME280;19885;42.208;24.952;2024-01-16T00:38:14;98600.03;;;1.01;100.00
33554;BME280;19885;42.208;24.952;2024-01-16T00:40:40;98610.81;;;0.86;100.00
33554;BME280;19885;42.208;24.952;2024-01-16T00:43:05;98605.47;;;0.77;100.00
33554;BME280;19885;42.208;24.952;2024-01-16T00:45:37;98590.16;;;1.16;100.00
33554;BME280;19885;42.208;24.952;2024-01-16T00:48:02;98583.84;;;1.03;100.00
33554;BME280;19885;42.208;24.952;2024-01-16T00:50:29;98584.34;;;0.89;100.00
33554;BME280;19885;42.208;24.952;2024-01-16T00:52:55;98587.22;;;0.65;100.00
33554;BME280;19885;42.208;24.952;2024-01-16T00:55:20;98583.53;;;0.55;100.00
33554;BME280;19885;42.208;24.952;2024-01-16T00:57:48;98595.97;;;0.40;100.00
33554;BME280;19885;42.208;24.952;2024-01-16T01:00:13;98597.28;;;0.25;100.00
33554;BME280;19885;42.208;24.952;2024-01-16T01:02:39;98581.03;;;0.24;100.00
33554;BME280;19885;42.208;24.952;2024-01-16T01:05:04;98581.91;;;0.25;100.00
33554;BME280;19885;42.208;24.952;2024-01-16T01:07:31;98564.41;;;0.41;100.00
33554;BME280;19885;42.208;24.952;2024-01-16T01:10:00;98557.91;;;0.90;100.00
33554;BME280;19885;42.208;24.952;2024-01-16T01:12:25;98542.19;;;0.76;100.00
33554;BME280;19885;42.208;24.952;2024-01-16T01:14:51;98536.91;;;1.06;100.00
33554;BME280;19885;42.208;24.952;2024-01-16T01:17:19;98535.72;;;1.29;100.00
33554;BME280;19885;42.208;24.952;2024-01-16T01:19:44;98540.16;;;1.37;100.00
33554;BME280;19885;42.208;24.952;2024-01-16T01:22:11;98559.81;;;0.98;100.00
33554;BME280;19885;42.208;24.952;2024-01-16T01:24:36;98549.34;;;0.53;100.00
33554;BME280;19885;42.208;24.952;2024-01-16T01:27:04;98531.75;;;1.04;100.00
33554;BME280;19885;42.208;24.952;2024-01-16T01:29:31;98528.59;;;1.16;100.00
33554;BME280;19885;42.208;24.952;2024-01-16T01:31:56;98527.97;;;1.27;100.00
33554;BME280;19885;42.208;24.952;2024-01-16T01:34:22;98516.09;;;1.32;100.00
33554;BME280;19885;42.208;24.952;2024-01-16T01:36:47;98516.97;;;1.33;100.00
33554;BME280;19885;42.208;24.952;2024-01-16T01:39:15;98534.53;;;1.13;100.00
33554;BME280;19885;42.208;24.952;2024-01-16T01:41:40;98543.16;;;1.18;100.00
33554;BME280;19885;42.208;24.952;2024-01-16T01:44:06;98538.91;;;1.19;100.00
33554;BME280;19885;42.208;24.952;2024-01-16T01:46:32;98537.91;;;1.12;100.00
33554;BME280;19885;42.208;24.952;2024-01-16T01:48:58;98550.03;;;0.82;100.00
33554;BME280;19885;42.208;24.952;2024-01-16T01:51:23;98560.59;;;0.96;100.00
33554;BME280;19885;42.208;24.952;2024-01-16T01:53:50;98559.97;;;1.04;100.00
33554;BME280;19885;42.208;24.952;2024-01-16T01:56:19;98556.38;;;0.62;100.00
33554;BME280;19885;42.208;24.952;2024-01-16T01:58:46;98554.13;;;0.74;100.00
33554;BME280;19885;42.208;24.952;2024-01-16T02:01:11;98550.41;;;0.99;100.00
33554;BME280;19885;42.208;24.952;2024-01-16T02:03:41;98550.44;;;1.00;100.00
33554;BME280;19885;42.208;24.952;2024-01-16T02:06:08;98550.13;;;0.87;100.00
33554;BME280;19885;42.208;24.952;2024-01-16T02:08:36;98555.38;;;0.57;100.00
33554;BME280;19885;42.208;24.952;2024-01-16T02:11:02;98551.63;;;0.77;100.00
33554;BME280;19885;42.208;24.952;2024-01-16T02:13:27;98550.84;;;0.11;100.00
33554;BME280;19885;42.208;24.952;2024-01-16T02:15:53;98545.38;;;-0.32;100.00
33554;BME280;19885;42.208;24.952;2024-01-16T02:18:18;98552.03;;;-0.08;100.00
33554;BME280;19885;42.208;24.952;2024-01-16T02:20:44;98550.28;;;-0.40;100.00
33554;BME280;19885;42.208;24.952;2024-01-16T02:23:09;98560.41;;;-0.43;100.00
33554;BME280;19885;42.208;24.952;2024-01-16T02:25:35;98569.31;;;-0.60;100.00
33554;BME280;19885;42.208;24.952;2024-01-16T02:28:00;98560.53;;;-0.68;100.00
33554;BME280;19885;42.208;24.952;2024-01-16T02:30:26;98552.69;;;-0.15;100.00
33554;BME280;19885;42.208;24.952;2024-01-16T02:32:51;98557.06;;;-0.11;100.00
33554;BME280;19885;42.208;24.952;2024-01-16T02:35:19;98548.00;;;-0.29;100.00
33554;BME280;19885;42.208;24.952;2024-01-16T02:37:45;98549.16;;;0.13;100.00
33554;BME280;19885;42.208;24.952;2024-01-16T02:40:10;98551.97;;;-0.09;100.00
33554;BME280;19885;42.208;24.952;2024-01-16T02:42:36;98561.69;;;-0.29;100.00
33554;BME280;19885;42.208;24.952;2024-01-16T02:45:02;98562.44;;;-0.02;100.00
33554;BME280;19885;42.208;24.952;2024-01-16T02:47:31;98567.00;;;0.43;100.00
33554;BME280;19885;42.208;24.952;2024-01-16T02:49:59;98565.84;;;0.66;100.00
33554;BME280;19885;42.208;24.952;2024-01-16T02:52:24;98566.25;;;0.81;100.00
33554;BME280;19885;42.208;24.952;2024-01-16T02:54:49;98565.25;;;0.76;100.00
33554;BME280;19885;42.208;24.952;2024-01-16T02:57:18;98562.81;;;0.81;100.00
33554;BME280;19885;42.208;24.952;2024-01-16T02:59:43;98567.66;;;1.04;100.00
33554;BME280;19885;42.208;24.952;2024-01-16T03:02:09;98558.53;;;1.18;100.00
33554;BME280;19885;42.208;24.952;2024-01-16T03:04:35;98553.41;;;1.18;100.00
33554;BME280;19885;42.208;24.952;2024-01-16T03:07:00;98565.59;;;0.90;100.00
33554;BME280;19885;42.208;24.952;2024-01-16T03:09:29;98580.25;;;0.95;100.00
33554;BME280;19885;42.208;24.952;2024-01-16T03:11:55;98588.97;;;1.03;100.00
33554;BME280;19885;42.208;24.952;2024-01-16T03:14:20;98589.97;;;1.08;100.00
33554;BME280;19885;42.208;24.952;2024-01-16T03:16:48;98592.75;;;1.17;100.00
33554;BME280;19885;42.208;24.952;2024-01-16T03:19:14;98600.72;;;0.94;100.00
33554;BME280;19885;42.208;24.952;2024-01-16T03:21:41;98608.13;;;0.82;100.00
33554;BME280;19885;42.208;24.952;2024-01-16T03:24:07;98601.44;;;0.54;100.00
33554;BME280;19885;42.208;24.952;2024-01-16T03:26:33;98607.63;;;-0.02;100.00
33554;BME280;19885;42.208;24.952;2024-01-16T03:28:58;98604.94;;;-0.07;100.00
33554;BME280;19885;42.208;24.952;2024-01-16T03:31:26;98608.34;;;-0.08;100.00
33554;BME280;19885;42.208;24.952;2024-01-16T03:33:52;98606.81;;;0.30;100.00
33554;BME280;19885;42.208;24.952;2024-01-16T03:36:18;98599.31;;;0.38;100.00
33554;BME280;19885;42.208;24.952;2024-01-16T03:38:43;98613.19;;;0.13;100.00
33554;BME280;19885;42.208;24.952;2024-01-16T03:41:10;98602.91;;;0.44;100.00
33554;BME280;19885;42.208;24.952;2024-01-16T03:43:36;98601.63;;;0.27;100.00
33554;BME280;19885;42.208;24.952;2024-01-16T03:46:02;98590.84;;;0.40;100.00
33554;BME280;19885;42.208;24.952;2024-01-16T03:48:29;98591.75;;;0.42;100.00
33554;BME280;19885;42.208;24.952;2024-01-16T03:50:55;98596.50;;;0.27;100.00
33554;BME280;19885;42.208;24.952;2024-01-16T03:53:21;98604.16;;;0.60;100.00
33554;BME280;19885;42.208;24.952;2024-01-16T03:55:46;98608.28;;;0.55;100.00
33554;BME280;19885;42.208;24.952;2024-01-16T03:58:12;98618.97;;;0.39;100.00
33554;BME280;19885;42.208;24.952;2024-01-16T04:00:37;98607.59;;;0.28;100.00
33554;BME280;19885;42.208;24.952;2024-01-16T04:03:02;98618.66;;;0.27;100.00
33554;BME280;19885;42.208;24.952;2024-01-16T04:05:30;98619.91;;;0.41;100.00
33554;BME280;19885;42.208;24.952;2024-01-16T04:07:56;98613.47;;;-0.08;100.00
33554;BME280;19885;42.208;24.952;2024-01-16T04:10:22;98622.78;;;-0.10;100.00
33554;BME280;19885;42.208;24.952;2024-01-16T04:12:50;98625.91;;;-0.20;100.00
33554;BME280;19885;42.208;24.952;2024-01-16T04:15:18;98641.00;;;-0.29;100.00
33554;BME280;19885;42.208;24.952;2024-01-16T04:17:43;98647.91;;;0.04;100.00
33554;BME280;19885;42.208;24.952;2024-01-16T04:20:08;98649.91;;;0.46;100.00
33554;BME280;19885;42.208;24.952;2024-01-16T04:22:34;98647.94;;;0.69;100.00
33554;BME280;19885;42.208;24.952;2024-01-16T04:24:59;98641.16;;;0.71;100.00
33554;BME280;19885;42.208;24.952;2024-01-16T04:27:25;98642.03;;;0.71;100.00
33554;BME280;19885;42.208;24.952;2024-01-16T04:29:50;98651.28;;;0.65;100.00
33554;BME280;19885;42.208;24.952;2024-01-16T04:32:16;98653.34;;;0.80;100.00
33554;BME280;19885;42.208;24.952;2024-01-16T04:34:41;98682.13;;;0.68;100.00
33554;BME280;19885;42.208;24.952;2024-01-16T04:37:10;98682.31;;;0.44;100.00
33554;BME280;19885;42.208;24.952;2024-01-16T04:39:35;98690.94;;;0.79;100.00
33554;BME280;19885;42.208;24.952;2024-01-16T04:42:00;98687.19;;;0.99;100.00
33554;BME280;19885;42.208;24.952;2024-01-16T04:44:26;98698.56;;;0.78;100.00
33554;BME280;19885;42.208;24.952;2024-01-16T04:46:51;98709.47;;;0.69;100.00
33554;BME280;19885;42.208;24.952;2024-01-16T04:49:17;98713.22;;;0.50;100.00
33554;BME280;19885;42.208;24.952;2024-01-16T04:51:43;98712.38;;;0.50;100.00
33554;BME280;19885;42.208;24.952;2024-01-16T04:54:09;98714.38;;;0.30;100.00
33554;BME280;19885;42.208;24.952;2024-01-16T04:56:35;98714.44;;;0.63;100.00
33554;BME280;19885;42.208;24.952;2024-01-16T04:59:14;98715.72;;;0.80;100.00
33554;BME280;19885;42.208;24.952;2024-01-16T05:01:59;98729.03;;;0.98;100.00
33554;BME280;19885;42.208;24.952;2024-01-16T05:04:29;98727.56;;;1.08;100.00
33554;BME280;19885;42.208;24.952;2024-01-16T05:06:54;98724.19;;;1.09;100.00
33554;BME280;19885;42.208;24.952;2024-01-16T05:09:20;98730.28;;;1.14;100.00
33554;BME280;19885;42.208;24.952;2024-01-16T05:11:45;98729.47;;;1.15;100.00
33554;BME280;19885;42.208;24.952;2024-01-16T05:14:11;98732.03;;;1.15;100.00
33554;BME280;19885;42.208;24.952;2024-01-16T05:16:37;98749.16;;;0.83;100.00
33554;BME280;19885;42.208;24.952;2024-01-16T05:19:02;98755.25;;;0.57;100.00
33554;BME280;19885;42.208;24.952;2024-01-16T05:21:28;98757.84;;;0.90;100.00
33554;BME280;19885;42.208;24.952;2024-01-16T05:23:53;98751.81;;;0.88;100.00
33554;BME280;19885;42.208;24.952;2024-01-16T05:26:19;98765.59;;;0.30;100.00
33554;BME280;19885;42.208;24.952;2024-01-16T05:28:45;98756.00;;;0.53;100.00
33554;BME280;19885;42.208;24.952;2024-01-16T05:31:10;98757.59;;;0.79;100.00
33554;BME280;19885;42.208;24.952;2024-01-16T05:33:36;98765.47;;;0.87;100.00
33554;BME280;19885;42.208;24.952;2024-01-16T05:36:01;98779.31;;;0.62;100.00
33554;BME280;19885;42.208;24.952;2024-01-16T05:38:27;98784.66;;;0.40;100.00
33554;BME280;19885;42.208;24.952;2024-01-16T05:40:53;98795.59;;;0.64;100.00
33554;BME280;19885;42.208;24.952;2024-01-16T05:43:18;98813.97;;;0.21;100.00
33554;BME280;19885;42.208;24.952;2024-01-16T05:45:46;98825.34;;;0.03;100.00
33554;BME280;19885;42.208;24.952;2024-01-16T05:48:11;98836.53;;;0.05;100.00
33554;BME280;19885;42.208;24.952;2024-01-16T05:50:37;98837.50;;;0.36;100.00
33554;BME280;19885;42.208;24.952;2024-01-16T05:53:03;98843.53;;;0.38;100.00
33554;BME280;19885;42.208;24.952;2024-01-16T05:55:28;98855.72;;;0.19;100.00
33554;BME280;19885;42.208;24.952;2024-01-16T05:57:57;98860.03;;;0.20;100.00
33554;BME280;19885;42.208;24.952;2024-01-16T06:00:23;98867.28;;;0.61;100.00
33554;BME280;19885;42.208;24.952;2024-01-16T06:02:48;98875.78;;;0.90;100.00
33554;BME280;19885;42.208;24.952;2024-01-16T06:05:15;98864.88;;;0.97;100.00
33554;BME280;19885;42.208;24.952;2024-01-16T06:07:40;98881.78;;;0.90;100.00
33554;BME280;19885;42.208;24.952;2024-01-16T06:10:06;98877.34;;;1.14;100.00
33554;BME280;19885;42.208;24.952;2024-01-16T06:12:31;98887.28;;;1.33;100.00
33554;BME280;19885;42.208;24.952;2024-01-16T06:14:58;98885.22;;;1.20;100.00
33554;BME280;19885;42.208;24.952;2024-01-16T06:17:23;98890.38;;;1.53;100.00
33554;BME280;19885;42.208;24.952;2024-01-16T06:19:48;98901.66;;;1.60;100.00
33554;BME280;19885;42.208;24.952;2024-01-16T06:22:13;98905.84;;;1.89;100.00
33554;BME280;19885;42.208;24.952;2024-01-16T06:24:39;98922.31;;;1.97;100.00
33554;BME280;19885;42.208;24.952;2024-01-16T06:27:04;98933.59;;;2.02;100.00
33554;BME280;19885;42.208;24.952;2024-01-16T06:29:31;98938.06;;;2.10;100.00
33554;BME280;19885;42.208;24.952;2024-01-16T06:31:57;98942.47;;;2.16;100.00
33554;BME280;19885;42.208;24.952;2024-01-16T06:34:22;98959.66;;;2.18;100.00
33554;BME280;19885;42.208;24.952;2024-01-16T06:36:47;98957.88;;;2.16;100.00
33554;BME280;19885;42.208;24.952;2024-01-16T06:39:13;98961.00;;;1.70;100.00
33554;BME280;19885;42.208;24.952;2024-01-16T06:41:40;98977.13;;;1.35;100.00
33554;BME280;19885;42.208;24.952;2024-01-16T06:44:05;98969.38;;;1.63;100.00
33554;BME280;19885;42.208;24.952;2024-01-16T06:46:33;98969.63;;;1.74;100.00
33554;BME280;19885;42.208;24.952;2024-01-16T06:49:00;98964.03;;;1.57;100.00
33554;BME280;19885;42.208;24.952;2024-01-16T06:51:25;98979.00;;;1.40;100.00
33554;BME280;19885;42.208;24.952;2024-01-16T06:53:51;98973.16;;;1.77;100.00
33554;BME280;19885;42.208;24.952;2024-01-16T06:56:16;98981.47;;;1.37;100.00
33554;BME280;19885;42.208;24.952;2024-01-16T06:58:41;98978.50;;;1.54;100.00
33554;BME280;19885;42.208;24.952;2024-01-16T07:01:09;98970.56;;;1.76;100.00
33554;BME280;19885;42.208;24.952;2024-01-16T07:03:34;98985.09;;;2.08;100.00
33554;BME280;19885;42.208;24.952;2024-01-16T07:05:59;98993.03;;;2.17;100.00
33554;BME280;19885;42.208;24.952;2024-01-16T07:08:25;98994.38;;;2.36;100.00
33554;BME280;19885;42.208;24.952;2024-01-16T07:10:50;98986.94;;;2.48;100.00
33554;BME280;19885;42.208;24.952;2024-01-16T07:13:18;98993.13;;;2.54;100.00
33554;BME280;19885;42.208;24.952;2024-01-16T07:15:44;99003.41;;;2.54;100.00
33554;BME280;19885;42.208;24.952;2024-01-16T07:18:09;99004.47;;;2.28;100.00
33554;BME280;19885;42.208;24.952;2024-01-16T07:20:35;99016.91;;;2.13;100.00
33554;BME280;19885;42.208;24.952;2024-01-16T07:23:03;99030.53;;;2.09;100.00
33554;BME280;19885;42.208;24.952;2024-01-16T07:25:29;99028.81;;;2.09;100.00
33554;BME280;19885;42.208;24.952;2024-01-16T07:27:54;99043.63;;;2.18;100.00
33554;BME280;19885;42.208;24.952;2024-01-16T07:30:19;99039.53;;;2.26;100.00
33554;BME280;19885;42.208;24.952;2024-01-16T07:32:44;99054.19;;;2.30;100.00
33554;BME280;19885;42.208;24.952;2024-01-16T07:35:10;99059.50;;;2.36;100.00
33554;BME280;19885;42.208;24.952;2024-01-16T07:37:35;99065.69;;;2.44;100.00
33554;BME280;19885;42.208;24.952;2024-01-16T07:40:03;99074.66;;;2.60;100.00
33554;BME280;19885;42.208;24.952;2024-01-16T07:42:34;99070.72;;;2.72;100.00
33554;BME280;19885;42.208;24.952;2024-01-16T07:45:03;99089.75;;;2.80;100.00
33554;BME280;19885;42.208;24.952;2024-01-16T07:47:32;99099.59;;;2.97;100.00
33554;BME280;19885;42.208;24.952;2024-01-16T07:50:00;99104.94;;;3.06;100.00
33554;BME280;19885;42.208;24.952;2024-01-16T07:52:27;99109.63;;;3.22;100.00
33554;BME280;19885;42.208;24.952;2024-01-16T07:54:52;99117.00;;;3.44;100.00
33554;BME280;19885;42.208;24.952;2024-01-16T07:57:17;99121.25;;;3.82;100.00
33554;BME280;19885;42.208;24.952;2024-01-16T07:59:43;99122.63;;;4.05;100.00
33554;BME280;19885;42.208;24.952;2024-01-16T08:02:08;99130.72;;;4.25;100.00
33554;BME280;19885;42.208;24.952;2024-01-16T08:04:34;99146.53;;;4.42;100.00
33554;BME280;19885;42.208;24.952;2024-01-16T08:06:59;99154.38;;;4.48;100.00
33554;BME280;19885;42.208;24.952;2024-01-16T08:09:25;99145.09;;;4.56;100.00
33554;BME280;19885;42.208;24.952;2024-01-16T08:11:50;99152.03;;;4.60;100.00
33554;BME280;19885;42.208;24.952;2024-01-16T08:14:15;99159.38;;;4.83;100.00
33554;BME280;19885;42.208;24.952;2024-01-16T08:16:41;99153.19;;;5.25;100.00
33554;BME280;19885;42.208;24.952;2024-01-16T08:19:06;99163.97;;;5.53;100.00
33554;BME280;19885;42.208;24.952;2024-01-16T08:21:32;99169.50;;;5.77;100.00
33554;BME280;19885;42.208;24.952;2024-01-16T08:23:58;99180.28;;;6.08;100.00
33554;BME280;19885;42.208;24.952;2024-01-16T08:26:23;99182.28;;;6.30;100.00
33554;BME280;19885;42.208;24.952;2024-01-16T08:28:49;99183.38;;;6.48;100.00
33554;BME280;19885;42.208;24.952;2024-01-16T08:31:16;99177.66;;;6.75;100.00
33554;BME280;19885;42.208;24.952;2024-01-16T08:33:41;99185.63;;;6.96;100.00
33554;BME280;19885;42.208;24.952;2024-01-16T08:36:07;99197.00;;;7.10;100.00
33554;BME280;19885;42.208;24.952;2024-01-16T08:38:32;99198.81;;;7.17;100.00
33554;BME280;19885;42.208;24.952;2024-01-16T08:40:58;99207.50;;;7.24;100.00
33554;BME280;19885;42.208;24.952;2024-01-16T08:43:23;99217.81;;;7.19;100.00
33554;BME280;19885;42.208;24.952;2024-01-16T08:45:49;99222.16;;;7.22;100.00
33554;BME280;19885;42.208;24.952;2024-01-16T08:48:14;99226.50;;;7.26;100.00
33554;BME280;19885;42.208;24.952;2024-01-16T08:50:40;99217.94;;;7.35;100.00
33554;BME280;19885;42.208;24.952;2024-01-16T08:53:05;99224.97;;;7.48;100.00
33554;BME280;19885;42.208;24.952;2024-01-16T08:55:31;99230.31;;;7.66;100.00
33554;BME280;19885;42.208;24.952;2024-01-16T08:57:57;99220.88;;;7.75;100.00
33554;BME280;19885;42.208;24.952;2024-01-16T09:00:22;99230.50;;;7.91;100.00
33554;BME280;19885;42.208;24.952;2024-01-16T09:02:48;99241.75;;;7.95;100.00
33554;BME280;19885;42.208;24.952;2024-01-16T09:05:13;99237.47;;;7.99;100.00
33554;BME280;19885;42.208;24.952;2024-01-16T09:07:39;99234.94;;;8.09;100.00
33554;BME280;19885;42.208;24.952;2024-01-16T09:10:05;99244.47;;;8.10;100.00
33554;BME280;19885;42.208;24.952;2024-01-16T09:12:30;99241.06;;;8.20;100.00
33554;BME280;19885;42.208;24.952;2024-01-16T09:14:56;99246.25;;;8.20;100.00
33554;BME280;19885;42.208;24.952;2024-01-16T09:17:21;99247.97;;;8.15;98.73
33554;BME280;19885;42.208;24.952;2024-01-16T09:19:46;99252.34;;;8.24;97.93
33554;BME280;19885;42.208;24.952;2024-01-16T09:22:12;99266.13;;;8.17;98.23
33554;BME280;19885;42.208;24.952;2024-01-16T09:24:40;99268.84;;;8.30;97.26
33554;BME280;19885;42.208;24.952;2024-01-16T09:27:08;99273.09;;;8.25;95.45
33554;BME280;19885;42.208;24.952;2024-01-16T09:29:35;99278.38;;;8.31;95.72
33554;BME280;19885;42.208;24.952;2024-01-16T09:32:00;99275.94;;;8.58;93.09
33554;BME280;19885;42.208;24.952;2024-01-16T09:34:26;99275.13;;;8.75;94.92
33554;BME280;19885;42.208;24.952;2024-01-16T09:36:51;99284.63;;;8.67;91.18
33554;BME280;19885;42.208;24.952;2024-01-16T09:39:16;99284.63;;;8.71;93.62
33554;BME280;19885;42.208;24.952;2024-01-16T09:41:42;99282.94;;;8.76;90.97
33554;BME280;19885;42.208;24.952;2024-01-16T09:44:09;99284.63;;;8.73;89.88
33554;BME280;19885;42.208;24.952;2024-01-16T09:46:34;99305.41;;;8.73;90.13
33554;BME280;19885;42.208;24.952;2024-01-16T09:49:02;99306.16;;;8.49;88.53
33554;BME280;19885;42.208;24.952;2024-01-16T09:51:27;99315.66;;;8.50;90.13
33554;BME280;19885;42.208;24.952;2024-01-16T09:53:53;99313.91;;;8.47;88.57
33554;BME280;19885;42.208;24.952;2024-01-16T09:56:21;99319.16;;;8.50;86.93
33554;BME280;19885;42.208;24.952;2024-01-16T09:58:46;99321.94;;;8.88;87.78
33554;BME280;19885;42.208;24.952;2024-01-16T10:01:13;99323.72;;;8.97;88.06
33554;BME280;19885;42.208;24.952;2024-01-16T10:03:39;99324.59;;;8.99;86.70
33554;BME280;19885;42.208;24.952;2024-01-16T10:06:06;99324.59;;;9.05;84.26
33554;BME280;19885;42.208;24.952;2024-01-16T10:08:32;99332.50;;;9.27;84.13
33554;BME280;19885;42.208;24.952;2024-01-16T10:10:57;99330.78;;;9.37;83.70
33554;BME280;19885;42.208;24.952;2024-01-16T10:13:23;99335.88;;;9.07;81.52
33554;BME280;19885;42.208;24.952;2024-01-16T10:15:52;99334.25;;;9.36;81.14
33554;BME280;19885;42.208;24.952;2024-01-16T10:18:23;99339.50;;;9.53;80.80
33554;BME280;19885;42.208;24.952;2024-01-16T10:20:52;99345.59;;;9.71;81.10
33554;BME280;19885;42.208;24.952;2024-01-16T10:28:34;99359.28;;;9.04;79.94
33554;BME280;19885;42.208;24.952;2024-01-16T10:31:09;99355.72;;;8.93;79.19
33554;BME280;19885;42.208;24.952;2024-01-16T10:33:34;99352.19;;;8.76;79.47
33554;BME280;19885;42.208;24.952;2024-01-16T10:36:15;99366.16;;;9.02;79.98
33554;BME280;19885;42.208;24.952;2024-01-16T10:38:47;99363.59;;;9.11;78.91
33554;BME280;19885;42.208;24.952;2024-01-16T10:41:13;99355.75;;;8.96;81.09
33554;BME280;19885;42.208;24.952;2024-01-16T10:43:39;99358.34;;;8.94;80.67
33554;BME280;19885;42.208;24.952;2024-01-16T10:46:13;99356.63;;;8.96;79.69
33554;BME280;19885;42.208;24.952;2024-01-16T10:48:40;99351.47;;;9.04;78.96
33554;BME280;19885;42.208;24.952;2024-01-16T10:51:07;99367.13;;;9.20;76.25
33554;BME280;19885;42.208;24.952;2024-01-16T10:53:34;99361.16;;;9.43;76.09
33554;BME280;19885;42.208;24.952;2024-01-16T10:56:00;99365.50;;;9.53;75.23
33554;BME280;19885;42.208;24.952;2024-01-16T10:58:26;99373.34;;;9.60;75.12
33554;BME280;19885;42.208;24.952;2024-01-16T11:00:53;99371.59;;;9.73;73.25
33554;BME280;19885;42.208;24.952;2024-01-16T11:04:03;99372.53;;;10.00;76.11
33554;BME280;19885;42.208;24.952;2024-01-16T11:06:09;99376.91;;;10.29;74.69
33554;BME280;19885;42.208;24.952;2024-01-16T11:08:38;99383.84;;;10.55;70.97
33554;BME280;19885;42.208;24.952;2024-01-16T11:11:04;99387.31;;;10.26;69.88
33554;BME280;19885;42.208;24.952;2024-01-16T11:13:33;99384.72;;;10.23;71.66
33554;BME280;19885;42.208;24.952;2024-01-16T11:16:02;99383.00;;;10.17;70.00
33554;BME280;19885;42.208;24.952;2024-01-16T11:18:31;99378.66;;;10.15;69.42
33554;BME280;19885;42.208;24.952;2024-01-16T11:20:57;99378.56;;;9.80;71.00
33554;BME280;19885;42.208;24.952;2024-01-16T11:23:23;99384.63;;;9.82;69.68
33554;BME280;19885;42.208;24.952;2024-01-16T11:25:49;99372.44;;;9.54;69.47
33554;BME280;19885;42.208;24.952;2024-01-16T11:28:16;99384.53;;;9.38;70.83
33554;BME280;19885;42.208;24.952;2024-01-16T11:30:44;99386.34;;;9.62;69.02
33554;BME280;19885;42.208;24.952;2024-01-16T11:35:56;99383.81;;;9.96;67.07
33554;BME280;19885;42.208;24.952;2024-01-16T11:38:22;99396.00;;;10.13;67.32
33554;BME280;19885;42.208;24.952;2024-01-16T11:40:48;99379.53;;;10.20;68.25
33554;BME280;19885;42.208;24.952;2024-01-16T11:43:35;99391.63;;;10.01;66.88
33554;BME280;19885;42.208;24.952;2024-01-16T11:46:06;99384.69;;;10.01;67.25
33554;BME280;19885;42.208;24.952;2024-01-16T11:48:34;99386.38;;;9.81;65.78
33554;BME280;19885;42.208;24.952;2024-01-16T11:51:03;99392.47;;;9.92;68.04
33554;BME280;19885;42.208;24.952;2024-01-16T11:53:48;99392.50;;;9.97;67.00
33554;BME280;19885;42.208;24.952;2024-01-16T11:56:26;99395.13;;;10.17;67.92
33554;BME280;19885;42.208;24.952;2024-01-16T12:01:34;99406.31;;;9.82;66.80
33554;BME280;19885;42.208;24.952;2024-01-16T12:04:06;99406.38;;;9.94;67.20
33554;BME280;19885;42.208;24.952;2024-01-16T12:06:33;99416.81;;;10.25;65.27
33554;BME280;19885;42.208;24.952;2024-01-16T12:09:14;99422.91;;;10.19;65.99
33554;BME280;19885;42.208;24.952;2024-01-16T12:11:40;99432.44;;;10.16;65.33
33554;BME280;19885;42.208;24.952;2024-01-16T12:14:05;99431.56;;;10.14;65.02
33554;BME280;19885;42.208;24.952;2024-01-16T12:16:30;99428.06;;;10.07;63.75
33554;BME280;19885;42.208;24.952;2024-01-16T12:19:08;99431.50;;;9.95;64.38
33554;BME280;19885;42.208;24.952;2024-01-16T12:21:34;99434.13;;;10.01;64.79
33554;BME280;19885;42.208;24.952;2024-01-16T12:24:00;99432.34;;;9.76;64.91
33554;BME280;19885;42.208;24.952;2024-01-16T12:26:26;99437.56;;;9.81;67.92
33554;BME280;19885;42.208;24.952;2024-01-16T12:28:52;99437.56;;;9.97;66.43
33554;BME280;19885;42.208;24.952;2024-01-16T12:31:18;99438.41;;;9.78;65.39
33554;BME280;19885;42.208;24.952;2024-01-16T12:33:43;99447.94;;;9.75;63.52
33554;BME280;19885;42.208;24.952;2024-01-16T12:36:08;99455.72;;;9.75;63.47
33554;BME280;19885;42.208;24.952;2024-01-16T12:38:35;99453.06;;;9.52;65.03
33554;BME280;19885;42.208;24.952;2024-01-16T12:41:01;99460.75;;;9.26;64.11
33554;BME280;19885;42.208;24.952;2024-01-16T12:43:27;99454.69;;;9.32;63.58
33554;BME280;19885;42.208;24.952;2024-01-16T12:45:55;99444.31;;;9.29;64.77
33554;BME280;19885;42.208;24.952;2024-01-16T12:48:27;99453.03;;;9.40;66.90
33554;BME280;19885;42.208;24.952;2024-01-16T12:50:58;99459.16;;;9.57;67.14
33554;BME280;19885;42.208;24.952;2024-01-16T12:53:24;99460.03;;;9.62;65.31
33554;BME280;19885;42.208;24.952;2024-01-16T12:55:56;99467.78;;;9.49;64.05
33554;BME280;19885;42.208;24.952;2024-01-16T12:58:22;99467.78;;;9.47;65.50
33554;BME280;19885;42.208;24.952;2024-01-16T13:00:53;99473.78;;;9.37;67.20